Time;durP1;ratioP1;P1;durP2;ratioP2;P2;SDS_P1;SDS_P2;PMS_P1;PMS_P2;Temp;Humidity;BMP_temperature;BMP_pressure;BME280_temperature;BME280_humidity;BME280_pressure;Samples;Min_cycle;Max_cycle;Signal;HPM_P1;HPM_P2
2023/04/10 00:00:19;;;;;;;33.47;21.00;;;6.70;99.90;;;;;;5053895;28;20178;-84
2023/04/10 00:02:45;;;;;;;32.27;20.03;;;6.60;99.90;;;;;;5053820;28;20182;-84
2023/04/10 00:05:11;;;;;;;32.70;20.70;;;6.60;99.90;;;;;;5053815;28;20192;-84
2023/04/10 00:07:36;;;;;;;29.70;19.07;;;6.60;99.90;;;;;;5053834;28;20620;-83
2023/04/10 00:10:02;;;;;;;34.33;20.07;;;6.60;99.90;;;;;;5053702;28;20173;-83
2023/04/10 00:12:28;;;;;;;36.30;20.07;;;6.50;99.90;;;;;;5053696;28;20709;-84
2023/04/10 00:14:54;;;;;;;37.47;19.50;;;6.50;99.90;;;;;;5053558;28;20680;-84
2023/04/10 00:17:20;;;;;;;31.47;19.30;;;6.40;99.90;;;;;;5053103;28;20201;-84
2023/04/10 00:19:45;;;;;;;35.10;20.00;;;6.40;99.90;;;;;;5053536;28;20170;-84
2023/04/10 00:22:11;;;;;;;34.63;20.77;;;6.40;99.90;;;;;;5054133;28;20543;-84
2023/04/10 00:24:37;;;;;;;35.47;21.20;;;6.30;99.90;;;;;;5053036;28;20632;-84
2023/04/10 00:27:03;;;;;;;36.70;20.63;;;6.30;99.90;;;;;;5053605;28;20316;-84
2023/04/10 00:29:28;;;;;;;33.77;20.83;;;6.20;99.90;;;;;;5035744;28;20217;-84
2023/04/10 00:31:54;;;;;;;31.27;20.63;;;6.20;99.90;;;;;;5035445;28;20217;-84
2023/04/10 00:34:20;;;;;;;31.67;20.70;;;6.20;99.90;;;;;;5053562;28;20257;-84
2023/04/10 00:36:47;;;;;;;32.67;19.77;;;6.20;99.90;;;;;;5053545;28;20259;-84
2023/04/10 00:39:13;;;;;;;33.93;20.50;;;6.20;99.90;;;;;;5053523;28;20242;-83
2023/04/10 00:41:39;;;;;;;35.07;20.30;;;6.20;99.90;;;;;;5053663;28;20247;-84
2023/04/10 00:44:04;;;;;;;37.27;21.87;;;6.20;99.90;;;;;;5053412;28;20631;-83
2023/04/10 00:46:31;;;;;;;34.13;21.67;;;6.20;99.90;;;;;;5053394;28;20178;-83
2023/04/10 00:48:57;;;;;;;36.13;19.80;;;6.20;99.90;;;;;;5053230;28;20165;-83
2023/04/10 00:51:23;;;;;;;35.13;21.73;;;6.10;99.90;;;;;;5053194;28;20205;-84
2023/04/10 00:53:53;;;;;;;36.17;21.53;;;6.10;99.90;;;;;;5053235;28;20235;-84
2023/04/10 00:56:20;;;;;;;34.67;21.17;;;6.10;99.90;;;;;;5035594;28;20185;-84
2023/04/10 01:01:21;;;;;;;37.43;21.43;;;6.00;99.90;;;;;;5371338;22;20711;-84
2023/04/10 01:03:47;;;;;;;34.93;21.60;;;6.00;99.90;;;;;;5015985;28;20178;-83
2023/04/10 01:06:29;;;;;;;33.73;19.80;;;6.00;99.90;;;;;;5033547;28;20178;-82
2023/04/10 01:09:33;;;;;;;36.00;21.30;;;6.00;99.90;;;;;;5033527;28;20177;-83
2023/04/10 01:12:08;;;;;;;35.60;20.67;;;5.90;99.90;;;;;;5033241;28;20232;-84
2023/04/10 01:14:41;;;;;;;34.73;20.30;;;5.90;99.90;;;;;;4986082;28;20171;-83
2023/04/10 01:17:12;;;;;;;37.23;21.60;;;5.90;99.90;;;;;;5013480;28;20164;-84
2023/04/10 01:19:59;;;;;;;37.43;21.33;;;5.80;99.90;;;;;;5013556;28;20163;-84
2023/04/10 01:22:33;;;;;;;35.87;20.83;;;5.80;99.90;;;;;;5013546;28;20170;-84
2023/04/10 01:25:39;;;;;;;38.23;21.33;;;5.80;99.90;;;;;;5013474;28;20205;-83
2023/04/10 01:28:10;;;;;;;37.00;21.20;;;5.80;99.90;;;;;;5016247;28;20167;-84
2023/04/10 01:30:37;;;;;;;41.37;22.20;;;5.80;99.90;;;;;;5023303;28;20581;-84
2023/04/10 01:33:09;;;;;;;35.60;20.80;;;5.70;99.90;;;;;;5037004;28;20198;-85
2023/04/10 01:35:36;;;;;;;40.60;22.63;;;5.70;99.90;;;;;;5036892;28;20224;-83
2023/04/10 01:38:04;;;;;;;35.43;21.03;;;5.70;99.90;;;;;;5036997;28;20178;-85
2023/04/10 01:40:31;;;;;;;37.70;20.73;;;5.70;99.90;;;;;;5036828;28;20171;-84
2023/04/10 01:43:00;;;;;;;40.43;22.53;;;5.70;99.90;;;;;;5035316;28;20195;-84
2023/04/10 01:45:27;;;;;;;34.43;20.37;;;5.70;99.90;;;;;;5036541;28;20163;-84
2023/04/10 01:47:54;;;;;;;35.07;21.53;;;5.70;99.90;;;;;;5036679;28;20175;-84
2023/04/10 01:50:24;;;;;;;36.17;21.40;;;5.70;99.90;;;;;;5036541;28;20175;-84
2023/04/10 01:52:54;;;;;;;37.93;21.23;;;5.60;99.90;;;;;;5018853;28;20309;-84
2023/04/10 01:55:20;;;;;;;35.67;21.10;;;5.50;99.90;;;;;;5036527;28;20529;-83
2023/04/10 01:57:48;;;;;;;36.30;21.43;;;5.40;99.90;;;;;;5018892;28;20180;-85
2023/04/10 02:00:16;;;;;;;38.80;23.43;;;5.40;99.90;;;;;;5035862;28;20226;-83
2023/04/10 02:02:43;;;;;;;47.43;24.87;;;5.30;99.90;;;;;;5018662;28;20261;-85
2023/04/10 02:05:12;;;;;;;55.70;27.23;;;5.30;99.90;;;;;;5036597;28;20229;-84
2023/04/10 02:07:55;;;;;;;59.43;28.20;;;5.20;99.90;;;;;;5036305;28;20182;-83
2023/04/10 02:10:28;;;;;;;68.03;30.43;;;5.20;99.90;;;;;;5018379;28;20182;-84
2023/04/10 02:13:05;;;;;;;55.20;26.93;;;5.20;99.90;;;;;;5013647;28;20257;-82
2023/04/10 02:15:32;;;;;;;39.70;22.10;;;5.30;99.90;;;;;;4998553;28;20175;-84
2023/04/10 02:18:00;;;;;;;36.10;20.27;;;5.30;99.90;;;;;;5016368;28;20186;-84
2023/04/10 02:20:26;;;;;;;36.20;20.83;;;5.30;99.90;;;;;;5016172;28;20175;-84
2023/04/10 02:22:53;;;;;;;40.13;23.23;;;5.30;99.90;;;;;;4998770;28;20229;-84
2023/04/10 02:25:19;;;;;;;29.03;19.60;;;5.30;99.90;;;;;;5016215;28;20195;-84
2023/04/10 02:27:45;;;;;;;31.37;19.63;;;5.20;99.90;;;;;;5016241;28;20168;-84
2023/04/10 02:30:10;;;;;;;34.20;20.77;;;5.10;99.90;;;;;;5019477;28;20182;-84
2023/04/10 02:32:37;;;;;;;35.17;20.53;;;5.00;99.90;;;;;;5018092;28;20217;-85
2023/04/10 02:35:03;;;;;;;34.47;21.50;;;4.90;99.90;;;;;;5018187;28;20265;-84
2023/04/10 02:37:30;;;;;;;39.37;21.47;;;4.80;99.90;;;;;;5035924;28;20461;-83
2023/04/10 02:39:55;;;;;;;42.50;24.77;;;4.80;99.90;;;;;;5035044;28;20606;-84
2023/04/10 02:42:21;;;;;;;74.73;35.60;;;4.80;99.90;;;;;;5035626;28;20175;-85
2023/04/10 02:44:47;;;;;;;75.53;35.20;;;4.70;99.90;;;;;;5035902;28;20174;-84
2023/04/10 02:47:13;;;;;;;84.97;39.23;;;4.70;99.90;;;;;;5035583;28;20178;-84
2023/04/10 02:49:39;;;;;;;78.97;39.03;;;4.70;99.90;;;;;;5017883;28;20185;-83
2023/04/10 02:52:06;;;;;;;81.23;36.73;;;4.70;99.90;;;;;;5017643;28;20245;-84
2023/04/10 02:54:31;;;;;;;81.73;37.30;;;4.60;99.90;;;;;;5035554;28;20597;-84
2023/04/10 02:56:57;;;;;;;73.73;32.93;;;4.60;99.90;;;;;;5035612;28;20265;-84
2023/04/10 02:59:23;;;;;;;51.47;26.10;;;4.70;99.90;;;;;;5035522;28;20249;-84
2023/04/10 03:01:50;;;;;;;51.67;27.20;;;4.60;99.90;;;;;;5034765;28;20730;-85
2023/04/10 03:04:17;;;;;;;45.80;24.60;;;4.70;99.90;;;;;;5017606;28;20179;-84
2023/04/10 03:06:43;;;;;;;48.20;25.67;;;4.70;99.90;;;;;;5017852;28;20190;-85
2023/04/10 03:09:09;;;;;;;46.20;24.53;;;4.70;99.90;;;;;;5035056;28;20182;-84
2023/04/10 03:11:34;;;;;;;42.70;22.47;;;4.70;99.90;;;;;;5035024;28;20203;-85
2023/04/10 03:14:00;;;;;;;47.53;23.40;;;4.70;99.90;;;;;;5035221;28;20181;-85
2023/04/10 03:16:26;;;;;;;46.07;23.80;;;4.60;99.90;;;;;;5034954;28;20167;-83
2023/04/10 03:18:52;;;;;;;45.47;24.30;;;4.50;99.90;;;;;;5035067;28;20174;-84
2023/04/10 03:21:18;;;;;;;50.63;25.10;;;4.40;99.90;;;;;;5034905;28;20185;-84
2023/04/10 03:23:43;;;;;;;50.67;24.53;;;4.50;99.90;;;;;;5017304;28;20182;-85
2023/04/10 03:26:09;;;;;;;45.23;23.67;;;4.40;99.90;;;;;;5017315;28;20210;-85
2023/04/10 03:28:35;;;;;;;44.93;24.23;;;4.50;99.90;;;;;;5034847;28;20248;-85
2023/04/10 03:31:02;;;;;;;45.17;23.57;;;4.50;99.90;;;;;;5016728;28;20609;-85
2023/04/10 03:33:28;;;;;;;40.93;22.07;;;4.50;99.90;;;;;;5034776;28;20567;-84
2023/04/10 03:35:54;;;;;;;35.07;20.47;;;4.50;99.90;;;;;;5034842;28;20950;-83
2023/04/10 03:38:20;;;;;;;35.67;20.90;;;4.50;99.90;;;;;;5034816;28;20174;-85
2023/04/10 03:40:45;;;;;;;31.30;19.73;;;4.50;99.90;;;;;;5034678;28;20170;-84
2023/04/10 03:43:11;;;;;;;33.93;19.47;;;4.50;99.90;;;;;;5034630;28;20175;-84
2023/04/10 03:45:36;;;;;;;34.60;20.17;;;4.50;99.90;;;;;;5034248;28;20597;-85
2023/04/10 03:48:02;;;;;;;32.20;19.83;;;4.50;99.90;;;;;;5034513;28;20487;-84
2023/04/10 03:50:28;;;;;;;31.10;18.93;;;4.40;99.90;;;;;;5034484;28;20265;-85
2023/04/10 03:52:54;;;;;;;30.73;18.53;;;4.40;99.90;;;;;;5034196;28;20214;-85
2023/04/10 03:55:20;;;;;;;33.60;19.23;;;4.30;99.90;;;;;;5034606;28;20632;-85
2023/04/10 03:57:47;;;;;;;33.20;19.40;;;4.40;99.90;;;;;;5016728;28;20179;-85
2023/04/10 04:00:14;;;;;;;32.80;19.37;;;4.40;99.90;;;;;;5032675;28;20616;-85
2023/04/10 04:02:40;;;;;;;31.70;18.97;;;4.40;99.90;;;;;;5016697;28;20202;-84
2023/04/10 04:05:06;;;;;;;28.47;17.73;;;4.30;99.90;;;;;;5034383;28;20557;-85
2023/04/10 04:07:32;;;;;;;39.03;19.73;;;4.30;99.90;;;;;;5034256;28;20250;-84
2023/04/10 04:09:59;;;;;;;36.13;20.33;;;4.20;99.90;;;;;;5034232;28;20186;-85
2023/04/10 04:12:25;;;;;;;52.20;27.00;;;4.20;99.90;;;;;;5034042;28;20248;-85
2023/04/10 04:14:50;;;;;;;49.20;24.63;;;4.20;99.90;;;;;;5034263;28;20201;-85
2023/04/10 04:17:16;;;;;;;41.87;23.30;;;4.20;99.90;;;;;;5034049;28;20564;-84
2023/04/10 04:19:42;;;;;;;39.43;20.40;;;4.20;99.90;;;;;;5034121;28;20167;-85
2023/04/10 04:22:08;;;;;;;41.57;22.73;;;4.20;99.90;;;;;;5033876;28;20235;-85
2023/04/10 04:24:34;;;;;;;48.17;23.60;;;4.10;99.90;;;;;;5033924;28;20229;-85
2023/04/10 04:27:01;;;;;;;58.80;27.13;;;4.10;99.90;;;;;;5016348;28;20193;-85
2023/04/10 04:29:27;;;;;;;54.20;25.97;;;4.00;99.90;;;;;;5033942;28;20602;-85
2023/04/10 04:31:52;;;;;;;45.67;23.40;;;4.00;99.90;;;;;;5033363;28;20209;-84
2023/04/10 04:34:19;;;;;;;48.30;25.53;;;4.00;99.90;;;;;;5016285;28;20189;-84
2023/04/10 04:36:48;;;;;;;42.83;22.30;;;4.00;99.90;;;;;;5033950;28;20497;-85
2023/04/10 04:39:14;;;;;;;49.90;22.77;;;4.00;99.90;;;;;;5033689;28;20182;-84
2023/04/10 04:41:40;;;;;;;51.00;24.50;;;4.00;99.90;;;;;;5033636;28;20261;-85
2023/04/10 04:44:06;;;;;;;54.63;25.53;;;4.00;99.90;;;;;;5033809;28;20257;-85
2023/04/10 04:46:31;;;;;;;52.90;24.30;;;3.90;99.90;;;;;;5033753;28;20199;-85
2023/04/10 04:48:57;;;;;;;53.80;26.97;;;4.00;99.90;;;;;;5016077;28;20181;-84
2023/04/10 04:51:23;;;;;;;46.70;24.73;;;4.00;99.90;;;;;;5033617;28;20285;-85
2023/04/10 04:53:49;;;;;;;47.37;23.93;;;4.00;99.90;;;;;;5033849;28;20191;-84
2023/04/10 04:56:14;;;;;;;46.77;23.17;;;4.00;99.90;;;;;;5034002;28;20155;-85
2023/04/10 04:58:40;;;;;;;42.07;21.93;;;4.00;99.90;;;;;;5033796;28;20232;-85
2023/04/10 05:01:07;;;;;;;38.37;20.63;;;4.00;99.90;;;;;;5033072;28;20230;-84
2023/04/10 05:03:32;;;;;;;47.20;23.30;;;4.10;99.90;;;;;;5037067;28;20512;-84
2023/04/10 05:05:58;;;;;;;44.00;22.87;;;4.00;99.90;;;;;;5037608;28;20182;-84
2023/04/10 05:08:24;;;;;;;41.60;21.73;;;3.90;99.90;;;;;;5037653;28;20501;-85
2023/04/10 05:10:50;;;;;;;37.73;21.63;;;4.00;99.90;;;;;;5037397;28;20208;-85
2023/04/10 05:13:17;;;;;;;37.17;21.27;;;4.00;99.90;;;;;;5019654;28;20232;-85
2023/04/10 05:15:43;;;;;;;44.17;22.27;;;4.00;99.90;;;;;;5037250;28;20207;-85
2023/04/10 05:18:10;;;;;;;39.43;20.90;;;4.00;99.90;;;;;;5037276;28;20204;-85
2023/04/10 05:20:36;;;;;;;39.53;21.50;;;3.90;99.90;;;;;;5019569;28;20178;-85
2023/04/10 05:23:02;;;;;;;38.83;20.13;;;3.90;99.90;;;;;;5037378;28;20240;-85
2023/04/10 05:25:29;;;;;;;33.63;20.40;;;4.00;99.90;;;;;;5037077;28;20662;-84
2023/04/10 05:27:55;;;;;;;35.50;20.00;;;4.20;99.90;;;;;;5037263;28;20166;-85
2023/04/10 05:30:21;;;;;;;37.10;21.10;;;4.30;99.90;;;;;;5036780;28;20244;-85
2023/04/10 05:32:46;;;;;;;46.03;22.70;;;4.50;99.90;;;;;;5019004;28;20214;-85
2023/04/10 05:35:12;;;;;;;47.87;23.80;;;4.70;99.90;;;;;;5036999;28;20175;-85
2023/04/10 05:37:38;;;;;;;52.67;25.43;;;4.70;99.90;;;;;;5037133;28;20181;-85
2023/04/10 05:40:04;;;;;;;47.30;24.23;;;4.90;99.90;;;;;;5036953;28;20189;-85
2023/04/10 05:42:30;;;;;;;49.93;23.10;;;5.00;99.90;;;;;;5036680;28;20179;-84
2023/04/10 05:44:55;;;;;;;44.87;23.83;;;5.10;99.90;;;;;;5035731;28;20201;-86
2023/04/10 05:47:21;;;;;;;53.87;24.27;;;5.30;99.90;;;;;;5018899;28;20571;-85
2023/04/10 05:49:47;;;;;;;49.13;24.77;;;5.40;99.90;;;;;;5036777;28;20253;-85
2023/04/10 05:52:12;;;;;;;57.63;25.00;;;5.40;99.90;;;;;;5036621;28;20210;-85
2023/04/10 05:54:38;;;;;;;64.73;25.93;;;5.50;99.90;;;;;;5036816;28;20178;-85
2023/04/10 05:57:04;;;;;;;56.80;25.77;;;5.50;99.90;;;;;;5035386;28;20182;-85
2023/04/10 05:59:29;;;;;;;54.90;24.13;;;5.60;99.90;;;;;;5018698;28;20518;-85
2023/04/10 06:01:56;;;;;;;44.37;22.80;;;5.80;99.90;;;;;;5035783;28;20300;-85
2023/04/10 06:04:22;;;;;;;42.33;21.70;;;5.90;99.90;;;;;;5018896;28;20181;-84
2023/04/10 06:06:47;;;;;;;44.43;22.33;;;6.00;99.90;;;;;;5018937;28;20179;-85
2023/04/10 06:09:13;;;;;;;47.70;22.60;;;6.10;99.90;;;;;;5036503;28;20468;-85
2023/04/10 06:11:39;;;;;;;37.87;20.50;;;6.30;99.90;;;;;;5036064;28;20265;-85
2023/04/10 06:14:05;;;;;;;36.37;19.73;;;6.40;99.90;;;;;;5035218;28;20182;-85
2023/04/10 06:16:31;;;;;;;31.97;20.43;;;6.60;99.90;;;;;;5018291;28;20189;-85
2023/04/10 06:18:57;;;;;;;39.60;19.73;;;6.70;99.90;;;;;;5036133;28;20175;-85
2023/04/10 06:21:22;;;;;;;31.97;19.10;;;6.90;99.90;;;;;;5018475;28;20214;-85
2023/04/10 06:23:48;;;;;;;31.30;18.37;;;7.00;99.90;;;;;;5036385;28;20214;-86
2023/04/10 06:26:14;;;;;;;32.53;18.20;;;7.10;99.90;;;;;;5036198;28;20182;-85
2023/04/10 06:28:40;;;;;;;31.90;17.93;;;7.20;99.90;;;;;;5036084;28;20234;-85
2023/04/10 06:31:06;;;;;;;29.73;18.70;;;7.40;99.90;;;;;;5018016;28;20175;-85
2023/04/10 06:33:34;;;;;;;28.77;18.77;;;7.60;99.90;;;;;;5001880;28;20648;-85
2023/04/10 06:36:02;;;;;;;26.87;17.20;;;7.80;99.90;;;;;;5036127;28;20179;-86
2023/04/10 06:38:29;;;;;;;28.77;17.57;;;7.90;99.90;;;;;;5018476;28;20205;-84
2023/04/10 06:40:54;;;;;;;27.10;17.40;;;8.10;99.90;;;;;;5036079;28;20178;-85
2023/04/10 06:43:23;;;;;;;22.77;15.60;;;8.30;99.90;;;;;;5035881;28;20658;-85
2023/04/10 06:45:49;;;;;;;19.27;13.77;;;8.60;99.90;;;;;;5035553;28;20194;-84
2023/04/10 06:48:14;;;;;;;21.23;14.40;;;8.90;99.90;;;;;;5035893;28;20174;-85
2023/04/10 06:50:40;;;;;;;21.58;14.25;;;9.10;99.90;;;;;;5035598;28;20170;-85
2023/04/10 06:53:06;;;;;;;19.95;13.43;;;9.30;99.90;;;;;;5035397;28;20672;-85
2023/04/10 06:55:32;;;;;;;18.25;13.85;;;9.50;99.90;;;;;;5035725;28;20178;-85
2023/04/10 06:57:58;;;;;;;19.40;14.07;;;9.60;99.90;;;;;;5017782;28;20189;-85
2023/04/10 07:00:24;;;;;;;17.42;12.80;;;9.70;99.90;;;;;;5034994;28;20234;-84
2023/04/10 07:02:50;;;;;;;19.20;12.68;;;9.80;99.90;;;;;;5017337;28;20186;-85
2023/04/10 07:05:16;;;;;;;21.63;13.77;;;10.00;99.90;;;;;;5017671;28;20181;-86
2023/04/10 07:07:42;;;;;;;19.42;13.85;;;10.10;99.90;;;;;;5035287;28;20170;-84
2023/04/10 07:10:08;;;;;;;19.08;13.65;;;10.30;99.90;;;;;;5035075;28;20512;-84
2023/04/10 07:12:34;;;;;;;19.17;13.85;;;10.40;99.90;;;;;;5034946;28;20389;-84
2023/04/10 07:15:00;;;;;;;17.02;12.90;;;10.40;99.90;;;;;;5035198;28;20254;-85
2023/04/10 07:17:26;;;;;;;19.27;12.80;;;10.40;99.90;;;;;;5034912;28;20177;-85
2023/04/10 07:19:51;;;;;;;15.57;11.95;;;10.50;99.90;;;;;;5035233;28;20175;-84
2023/04/10 07:22:17;;;;;;;18.40;13.52;;;10.60;99.90;;;;;;5034924;28;20202;-84
2023/04/10 07:24:43;;;;;;;16.60;12.05;;;10.60;99.90;;;;;;5034573;28;20625;-85
2023/04/10 07:27:09;;;;;;;17.60;12.57;;;10.70;99.90;;;;;;5034940;28;20493;-84
2023/04/10 07:29:34;;;;;;;18.42;12.57;;;10.70;99.90;;;;;;5034714;28;20202;-84
2023/04/10 07:32:00;;;;;;;18.88;12.90;;;10.70;99.90;;;;;;5034246;28;20248;-85
2023/04/10 07:34:26;;;;;;;14.52;11.25;;;10.80;99.90;;;;;;5017006;28;20208;-85
2023/04/10 07:36:52;;;;;;;16.25;11.80;;;10.90;99.90;;;;;;5034807;28;20199;-85
2023/04/10 07:39:17;;;;;;;15.70;11.82;;;11.10;99.90;;;;;;5034640;28;20601;-86
2023/04/10 07:41:43;;;;;;;15.65;11.60;;;11.20;99.90;;;;;;5016567;28;20179;-84
2023/04/10 07:44:10;;;;;;;16.98;11.55;;;11.40;99.90;;;;;;5016627;28;20289;-85
2023/04/10 07:46:35;;;;;;;17.02;11.70;;;11.60;99.90;;;;;;5034383;28;20206;-85
2023/04/10 07:49:01;;;;;;;14.68;10.80;;;11.70;99.90;;;;;;5034452;28;20613;-84
2023/04/10 07:51:27;;;;;;;14.82;11.32;;;11.70;99.90;;;;;;5034402;28;20692;-84
2023/04/10 07:53:54;;;;;;;18.83;11.60;;;11.70;99.90;;;;;;5016633;28;20245;-84
2023/04/10 07:56:20;;;;;;;14.05;10.95;;;11.80;99.90;;;;;;5034182;28;20201;-84
2023/04/10 07:58:47;;;;;;;14.63;10.57;;;11.90;99.90;;;;;;5033018;28;20190;-84
2023/04/10 08:01:13;;;;;;;14.32;11.00;;;11.90;99.90;;;;;;5033597;28;20226;-83
2023/04/10 08:03:46;;;;;;;13.68;10.35;;;12.00;99.90;;;;;;5034190;28;20182;-85
2023/04/10 08:06:12;;;;;;;14.52;10.27;;;12.20;99.90;;;;;;5034208;28;20169;-83
2023/04/10 08:08:40;;;;;;;15.55;10.63;;;12.30;99.90;;;;;;5034008;28;20166;-84
2023/04/10 08:11:20;;;;;;;13.68;9.85;;;12.40;99.90;;;;;;5016068;28;20178;-84
2023/04/10 08:13:45;;;;;;;15.70;10.00;;;12.50;99.90;;;;;;5032888;28;20186;-85
2023/04/10 08:16:11;;;;;;;12.63;9.35;;;12.50;99.90;;;;;;5033892;28;20228;-84
2023/04/10 08:18:37;;;;;;;13.57;9.85;;;12.60;99.90;;;;;;5034161;28;20305;-84
2023/04/10 08:21:03;;;;;;;13.00;8.88;;;12.70;99.90;;;;;;5033646;28;20487;-84
2023/04/10 08:23:28;;;;;;;12.25;9.43;;;12.80;99.90;;;;;;5016232;28;20190;-83
2023/04/10 08:25:54;;;;;;;12.98;9.75;;;12.80;99.90;;;;;;5034082;28;20181;-83
2023/04/10 08:28:20;;;;;;;12.98;9.73;;;12.90;99.90;;;;;;5033967;28;20177;-84
2023/04/10 08:30:46;;;;;;;13.80;9.73;;;13.00;99.90;;;;;;5033622;28;20186;-84
2023/04/10 08:33:11;;;;;;;11.57;8.93;;;13.10;99.90;;;;;;5033224;28;20260;-84
2023/04/10 08:35:37;;;;;;;12.27;9.07;;;13.30;99.90;;;;;;5033920;28;20175;-84
2023/04/10 08:38:03;;;;;;;10.95;8.48;;;13.40;99.90;;;;;;5033072;28;20170;-85
2023/04/10 08:40:28;;;;;;;13.40;8.63;;;13.50;99.90;;;;;;5033547;28;20757;-83
2023/04/10 08:42:54;;;;;;;11.48;8.57;;;13.60;99.90;;;;;;5033674;28;20253;-85
2023/04/10 08:45:21;;;;;;;12.32;9.07;;;13.80;99.90;;;;;;5033660;28;20176;-83
2023/04/10 08:47:50;;;;;;;9.55;7.63;;;13.90;99.80;;;;;;5033430;28;20636;-84
2023/04/10 08:50:17;;;;;;;9.73;8.32;;;14.00;98.20;;;;;;5016004;28;20182;-84
2023/04/10 08:52:45;;;;;;;11.55;8.90;;;14.00;98.20;;;;;;5033269;28;20668;-84
2023/04/10 08:55:13;;;;;;;11.98;9.13;;;14.10;98.80;;;;;;5033551;28;20253;-83
2023/04/10 08:57:40;;;;;;;12.57;8.45;;;14.10;97.60;;;;;;5015888;28;20262;-84
2023/04/10 09:00:06;;;;;;;11.77;8.50;;;14.30;99.30;;;;;;5031881;28;20540;-82
2023/04/10 09:02:32;;;;;;;12.25;8.32;;;14.40;98.10;;;;;;5033037;28;20175;-84
2023/04/10 09:05:00;;;;;;;11.45;8.80;;;14.50;97.10;;;;;;5033828;28;20174;-84
2023/04/10 09:07:26;;;;;;;10.43;8.02;;;14.50;97.00;;;;;;5015664;28;20266;-83
2023/04/10 09:09:52;;;;;;;10.48;8.38;;;14.60;97.10;;;;;;5033506;28;20258;-82
2023/04/10 09:12:17;;;;;;;11.52;8.38;;;14.60;97.10;;;;;;5033340;28;20202;-83
2023/04/10 09:14:43;;;;;;;11.38;9.02;;;14.60;96.80;;;;;;5033348;28;20201;-81
2023/04/10 09:17:24;;;;;;;11.23;8.63;;;14.80;96.20;;;;;;5015334;28;20630;-85
2023/04/10 09:19:52;;;;;;;13.02;9.32;;;14.90;97.00;;;;;;5033293;28;20228;-83
2023/04/10 09:22:28;;;;;;;12.52;9.57;;;15.00;97.70;;;;;;4999388;28;20221;-85
2023/04/10 09:24:53;;;;;;;12.65;9.07;;;15.10;97.10;;;;;;5015783;28;20246;-83
2023/04/10 09:27:40;;;;;;;12.13;9.77;;;15.30;96.30;;;;;;5033244;28;20257;-83
2023/04/10 09:30:07;;;;;;;10.70;8.43;;;15.30;96.70;;;;;;5033133;28;20747;-82
2023/04/10 09:32:43;;;;;;;12.93;9.35;;;15.40;94.50;;;;;;5014940;28;20207;-84
2023/04/10 09:35:11;;;;;;;13.55;10.38;;;15.50;96.20;;;;;;5015565;28;20178;-82
2023/04/10 09:37:37;;;;;;;12.82;10.38;;;15.50;95.40;;;;;;5033181;28;20182;-83
2023/04/10 09:40:04;;;;;;;13.80;9.80;;;15.50;96.20;;;;;;5031731;28;20601;-86
2023/04/10 09:42:36;;;;;;;11.25;8.75;;;15.60;95.90;;;;;;5033020;28;20202;-84
2023/04/10 09:45:03;;;;;;;13.07;9.48;;;15.60;94.60;;;;;;5033075;28;20175;-85
2023/04/10 09:47:29;;;;;;;10.98;8.50;;;15.70;95.10;;;;;;5032967;28;20179;-84
2023/04/10 09:49:57;;;;;;;11.82;8.07;;;15.80;95.80;;;;;;5036676;28;20189;-84
2023/04/10 09:52:32;;;;;;;9.40;7.35;;;15.90;93.30;;;;;;5018562;28;20213;-83
2023/04/10 09:55:00;;;;;;;10.65;7.18;;;15.90;93.00;;;;;;5036626;28;20166;-83
2023/04/10 09:57:31;;;;;;;12.25;7.38;;;15.90;92.10;;;;;;5036435;28;20173;-83
2023/04/10 09:59:59;;;;;;;11.82;7.63;;;15.90;92.80;;;;;;5036494;28;20155;-83
2023/04/10 10:02:28;;;;;;;9.52;7.00;;;15.90;92.30;;;;;;5036203;28;20183;-85
2023/04/10 10:04:55;;;;;;;9.63;7.43;;;16.00;92.40;;;;;;5035292;28;20565;-82
2023/04/10 10:07:23;;;;;;;10.82;7.88;;;16.10;92.50;;;;;;5036302;28;20179;-83
2023/04/10 10:09:51;;;;;;;10.82;8.23;;;16.30;93.40;;;;;;5036049;28;20177;-83
2023/04/10 10:12:23;;;;;;;8.13;6.60;;;16.50;92.60;;;;;;5035988;28;20695;-81
2023/04/10 10:15:04;;;;;;;7.32;6.00;;;16.60;91.40;;;;;;5018474;28;20536;-84
2023/04/10 10:18:19;;;;;;;9.45;6.90;;;16.70;90.90;;;;;;5028130;28;20190;-82
2023/04/10 10:20:46;;;;;;;9.63;7.10;;;16.70;88.30;;;;;;4979702;28;20264;-85
2023/04/10 10:23:13;;;;;;;8.27;6.72;;;16.60;87.90;;;;;;4996565;28;20267;-82
2023/04/10 10:25:40;;;;;;;8.98;7.03;;;16.50;87.60;;;;;;4996746;28;20192;-84
2023/04/10 10:28:06;;;;;;;9.82;7.75;;;16.50;89.50;;;;;;5016142;28;20194;-82
2023/04/10 10:30:36;;;;;;;10.45;7.80;;;16.70;90.80;;;;;;5019497;28;20179;-85
2023/04/10 10:33:05;;;;;;;10.60;7.80;;;16.70;89.70;;;;;;4994763;28;20560;-83
2023/04/10 10:35:34;;;;;;;8.55;6.70;;;16.60;87.10;;;;;;4995260;28;20505;-85
2023/04/10 10:38:02;;;;;;;8.82;7.32;;;16.60;88.20;;;;;;4995198;28;20184;-85
2023/04/10 10:40:40;;;;;;;8.90;7.13;;;16.70;90.30;;;;;;4996143;28;20291;-80
2023/04/10 10:43:46;;;;;;;7.60;6.53;;;16.70;90.10;;;;;;4994978;28;20183;-84
2023/04/10 10:46:23;;;;;;;10.07;7.75;;;16.70;90.80;;;;;;4995035;28;20207;-87
2023/04/10 10:48:59;;;;;;;12.45;8.02;;;16.70;90.50;;;;;;4995981;28;20171;-84
2023/04/10 10:51:46;;;;;;;9.82;7.63;;;16.70;90.90;;;;;;4995390;28;20211;-84
2023/04/10 10:54:32;;;;;;;12.45;8.15;;;16.80;91.80;;;;;;4995445;28;20182;-84
2023/04/10 10:56:59;;;;;;;10.82;7.78;;;17.00;90.40;;;;;;4995947;28;20187;-86
2023/04/10 10:59:47;;;;;;;10.20;8.02;;;16.90;90.50;;;;;;4995401;28;20175;-86
2023/04/10 11:02:17;;;;;;;9.32;8.00;;;16.80;91.30;;;;;;4955406;29;20272;-86
2023/04/10 11:04:47;;;;;;;10.82;8.23;;;16.90;91.90;;;;;;4956054;29;20181;-85
2023/04/10 11:07:15;;;;;;;11.70;8.60;;;16.90;91.40;;;;;;4957453;29;20197;-81
2023/04/10 11:09:47;;;;;;;9.60;8.07;;;17.00;91.60;;;;;;4957000;29;20248;-83
2023/04/10 11:12:14;;;;;;;11.82;8.70;;;17.10;91.30;;;;;;4956811;29;20212;-82
2023/04/10 11:14:41;;;;;;;10.10;8.57;;;17.10;92.30;;;;;;4956966;29;20553;-80
2023/04/10 11:17:09;;;;;;;10.20;6.55;;;17.20;93.10;;;;;;4955658;29;20592;-81
2023/04/10 11:20:00;;;;;;;8.05;6.88;;;17.30;90.60;;;;;;4956821;29;20600;-83
2023/04/10 11:22:26;;;;;;;9.77;8.25;;;17.50;90.70;;;;;;4956667;29;20601;-83
2023/04/10 11:24:58;;;;;;;12.75;10.20;;;17.60;90.50;;;;;;4955430;29;20268;-84
2023/04/10 11:27:47;;;;;;;10.75;8.65;;;17.50;91.20;;;;;;4956598;29;20264;-81
2023/04/10 11:30:27;;;;;;;10.35;8.82;;;17.60;91.40;;;;;;4960386;28;20180;-83
2023/04/10 11:32:53;;;;;;;11.25;9.07;;;17.70;91.80;;;;;;4975673;28;20227;-84
2023/04/10 11:35:20;;;;;;;13.38;10.45;;;17.70;92.40;;;;;;4975958;28;20234;-83
2023/04/10 11:37:46;;;;;;;13.60;10.60;;;17.70;92.00;;;;;;4975842;28;20571;-82
2023/04/10 11:40:12;;;;;;;12.38;10.38;;;17.70;93.60;;;;;;4976034;28;20199;-81
2023/04/10 11:42:38;;;;;;;13.27;11.02;;;17.80;92.00;;;;;;4975442;28;20631;-81
2023/04/10 11:45:27;;;;;;;13.07;9.57;;;17.80;93.00;;;;;;4974150;28;20271;-82
2023/04/10 11:47:53;;;;;;;12.68;9.80;;;17.90;92.50;;;;;;4975122;28;20165;-81
2023/04/10 11:50:20;;;;;;;12.50;9.35;;;17.90;91.40;;;;;;4975683;28;20173;-81
2023/04/10 11:52:48;;;;;;;11.85;9.25;;;17.80;92.70;;;;;;4975624;28;20223;-83
2023/04/10 11:55:15;;;;;;;11.80;8.65;;;17.80;91.60;;;;;;4974026;28;20180;-80
2023/04/10 11:57:41;;;;;;;9.75;8.10;;;17.80;91.50;;;;;;4975394;28;20176;-81
2023/04/10 12:00:08;;;;;;;9.50;8.00;;;17.80;91.50;;;;;;4982279;28;20215;-85
2023/04/10 12:02:33;;;;;;;9.25;6.80;;;17.80;91.80;;;;;;5014217;28;20182;-82
2023/04/10 12:04:59;;;;;;;9.93;7.25;;;17.90;91.30;;;;;;5014090;28;20167;-81
2023/04/10 12:07:30;;;;;;;9.35;7.28;;;18.00;91.70;;;;;;5001890;28;20187;-86
2023/04/10 12:09:56;;;;;;;15.73;5.88;;;18.20;90.50;;;;;;5000175;28;20179;-86
2023/04/10 12:12:35;;;;;;;7.28;5.80;;;18.10;90.20;;;;;;5014325;28;20631;-83
2023/04/10 12:15:02;;;;;;;6.90;5.15;;;18.30;86.10;;;;;;5033917;28;20194;-82
2023/04/10 12:17:27;;;;;;;5.82;5.22;;;18.30;85.90;;;;;;5033972;28;20210;-83
2023/04/10 12:19:53;;;;;;;5.88;4.50;;;18.50;89.50;;;;;;5032743;28;20213;-82
2023/04/10 12:22:20;;;;;;;6.75;4.30;;;18.70;86.00;;;;;;5033729;28;20189;-82
2023/04/10 12:24:48;;;;;;;5.63;4.80;;;18.60;82.70;;;;;;5019028;28;20529;-84
2023/04/10 12:27:21;;;;;;;4.63;3.83;;;18.60;85.70;;;;;;5012833;28;20530;-83
2023/04/10 12:29:49;;;;;;;4.35;3.45;;;18.80;85.80;;;;;;4990589;28;20191;-85
2023/04/10 12:32:15;;;;;;;4.40;3.92;;;18.80;84.20;;;;;;5010917;28;20207;-84
2023/04/10 12:34:41;;;;;;;4.53;3.65;;;18.90;87.70;;;;;;5013869;28;20520;-85
2023/04/10 12:37:08;;;;;;;4.75;3.92;;;18.90;82.20;;;;;;5012337;28;20215;-84
2023/04/10 12:39:34;;;;;;;4.75;4.10;;;18.80;81.20;;;;;;5008775;28;20233;-83
2023/04/10 12:42:19;;;;;;;4.18;3.70;;;18.80;82.60;;;;;;5010706;28;20174;-82
2023/04/10 12:44:59;;;;;;;5.70;4.25;;;18.90;80.90;;;;;;5018030;28;20247;-81